Friday, October 19, 2018, 12:43 AM EDT
Back to Local

KLGA, New York La Guardia Airport

Location: Astoria, NY, United States Lat: 40.783
Local Time: 12:43 AM EDT ( 4:43 GMT) Lon: -73.883
Time Zone: US/Eastern Elev: 22 ft

Show me the last for .
Show Decoded

2018-10-18 23:51 METAR KLGA 190351Z VRB05KT 10SM CLR 11/M03 A3034 RMK AO2 SLP274 T01061033 =
2018-10-18 22:51 METAR KLGA 190251Z 33006KT 10SM CLR 09/M04 A3035 RMK AO2 SLP277 T00891039 51006
                 =
2018-10-18 21:51 METAR KLGA 190151Z 32010KT 10SM CLR 09/M03 A3035 RMK AO2 SLP276 T00941028 =
2018-10-18 20:51 METAR KLGA 190051Z 32009KT 10SM CLR 10/M04 A3034 RMK AO2 SLP274 T01001039 =
2018-10-18 19:51 METAR KLGA 182351Z 30010KT 10SM CLR 10/M05 A3033 RMK AO2 SLP271 T01001050 10117
                 20100 51010 =
2018-10-18 18:51 METAR KLGA 182251Z 30011KT 10SM CLR 11/M04 A3033 RMK AO2 SLP271 T01061044 =
2018-10-18 17:51 METAR KLGA 182151Z 30014G21KT 10SM CLR 11/M05 A3031 RMK AO2 SLP264 T01111050 $ =
2018-10-18 16:51 METAR KLGA 182051Z 29016G21KT 10SM FEW070 11/M06 A3030 RMK AO2 SLP261 T01111061
                 55005 $ =
2018-10-18 15:51 METAR KLGA 181951Z 30012G21KT 10SM FEW070 11/M07 A3030 RMK AO2 SLP260 T01111072
                 $ =
2018-10-18 14:51 METAR KLGA 181851Z 30014G23KT 10SM FEW070 11/M05 A3031 RMK AO2 PK WND 27027/1823
                 SLP262 T01111050 $ =
2018-10-18 13:51 METAR KLGA 181751Z 31015G24KT 10SM FEW060 11/M05 A3032 RMK AO2 SLP265 T01061050
                 10106 20067 58008 $ =
2018-10-18 12:51 METAR KLGA 181651Z 29017KT 10SM FEW055 10/M05 A3033 RMK AO2 SLP269 T01001050 $ =
2018-10-18 11:51 METAR KLGA 181551Z 32013G22KT 10SM FEW055 09/M05 A3034 RMK AO2 SLP274 T00891050
                 $ =
2018-10-18 10:51 METAR KLGA 181451Z 32017G27KT 10SM SCT055 08/M04 A3034 RMK AO2 PK WND 32027/1447
                 SLP273 T00831039 51014 $ =
2018-10-18 09:51 METAR KLGA 181351Z 32014G21KT 10SM FEW050 07/M04 A3034 RMK AO2 SLP272 T00721039
                 $ =
2018-10-18 08:51 METAR KLGA 181251Z 32014G20KT 10SM FEW045 FEW065 07/M02 A3034 RMK AO2 SLP272
                 T00721022 $ =
2018-10-18 07:51 METAR KLGA 181151Z 31014G20KT 10SM FEW045 SCT065 07/M03 A3030 RMK AO2 PK WND
                 29026/1055 SLP259 T00671028 10089 20067 53028 $ =
2018-10-18 06:51 METAR KLGA 181051Z 32016KT 10SM SCT070 07/M03 A3027 RMK AO2 SLP249 T00671028 $ =
2018-10-18 05:51 METAR KLGA 180951Z 30012G21KT 10SM FEW049 FEW065 07/M03 A3025 RMK AO2 SLP241
                 T00721028 $ =
2018-10-18 04:51 METAR KLGA 180851Z 31013KT 10SM SCT050 08/M02 A3022 RMK AO2 SLP231 T00781017
                 53021 $ =
2018-10-18 03:51 METAR KLGA 180751Z 29012G19KT 10SM CLR 08/M03 A3019 RMK AO2 PK WND 32030/0658
                 SLP221 T00831028 $ =
2018-10-18 02:51 METAR KLGA 180651Z 30018G25KT 10SM FEW080 09/M03 A3016 RMK AO2 SLP214 T00891028
                 $ =
2018-10-18 01:51 METAR KLGA 180551Z 32020G26KT 10SM OVC080 09/M01 A3015 RMK AO2 PK WND 30026/0513
                 SLP211 T00891011 10139 20089 51021 $ =
2018-10-18 00:51 METAR KLGA 180451Z 30014KT 10SM FEW060 09/M01 A3014 RMK AO2 PK WND 30030/0412
                 SLP206 T00941006 401780094 $ =

Support USWX by starting your Amazon purchase here.